Time;durP1;ratioP1;P1;durP2;ratioP2;P2;SDS_P1;SDS_P2;PMS_P1;PMS_P2;Temp;Humidity;BMP_temperature;BMP_pressure;BME280_temperature;BME280_humidity;BME280_pressure;Samples;Min_cycle;Max_cycle;Signal;HPM_P1;HPM_P2
2023/03/19 00:02:00;;;;;;;39.95;28.23;;;9.40;99.90;;;;;;5072679;28;20055;-49
2023/03/19 00:04:26;;;;;;;39.28;28.17;;;9.30;99.90;;;;;;5090544;28;20437;-50
2023/03/19 00:06:53;;;;;;;47.75;28.08;;;8.60;99.90;;;;;;5090421;28;20072;-48
2023/03/19 00:09:20;;;;;;;37.80;25.77;;;8.90;99.90;;;;;;5089830;28;20779;-48
2023/03/19 00:11:46;;;;;;;38.83;26.08;;;8.50;99.90;;;;;;5089292;28;20097;-49
2023/03/19 00:14:12;;;;;;;38.70;24.77;;;8.80;99.90;;;;;;5091027;28;20109;-48
2023/03/19 00:16:37;;;;;;;60.45;31.20;;;8.30;99.90;;;;;;5090646;28;20477;-51
2023/03/19 00:19:03;;;;;;;71.32;31.30;;;8.30;99.90;;;;;;5091155;28;20102;-49
2023/03/19 00:21:30;;;;;;;36.75;25.90;;;8.50;99.90;;;;;;5091160;28;20082;-49
2023/03/19 00:24:01;;;;;;;54.38;27.77;;;8.40;99.90;;;;;;5091392;28;20108;-48
2023/03/19 00:26:28;;;;;;;60.53;30.88;;;8.40;99.90;;;;;;5072478;28;20165;-48
2023/03/19 00:28:55;;;;;;;45.05;28.35;;;8.50;99.90;;;;;;5090278;28;20032;-49
2023/03/19 00:31:22;;;;;;;45.83;27.75;;;8.50;99.90;;;;;;5090457;28;20366;-48
2023/03/19 00:33:48;;;;;;;53.58;30.20;;;8.60;99.90;;;;;;5090323;28;20435;-48
2023/03/19 00:36:15;;;;;;;43.10;28.58;;;8.60;99.90;;;;;;5070886;28;20131;-49
2023/03/19 00:38:42;;;;;;;53.85;30.42;;;8.60;99.90;;;;;;5090935;28;20042;-50
2023/03/19 00:41:08;;;;;;;50.78;30.55;;;9.00;99.90;;;;;;5072683;28;20048;-48
2023/03/19 00:43:33;;;;;;;65.72;35.05;;;8.70;99.90;;;;;;5072009;28;20092;-48
2023/03/19 00:45:59;;;;;;;53.45;30.67;;;8.60;99.90;;;;;;5089982;28;20113;-48
2023/03/19 00:48:26;;;;;;;52.40;31.52;;;8.80;99.90;;;;;;5090119;28;20161;-49
2023/03/19 00:50:51;;;;;;;81.25;37.38;;;8.70;99.90;;;;;;5089674;28;20090;-48
2023/03/19 00:53:18;;;;;;;59.88;32.60;;;8.80;99.90;;;;;;5089863;28;20560;-47
2023/03/19 00:55:43;;;;;;;73.50;35.08;;;8.80;99.90;;;;;;5089835;28;20547;-49
2023/03/19 00:58:09;;;;;;;64.47;35.38;;;9.20;99.90;;;;;;5090005;28;20043;-50
2023/03/19 01:00:37;;;;;;;52.05;31.77;;;8.80;99.90;;;;;;5089853;28;20051;-49
2023/03/19 01:03:03;;;;;;;49.60;30.05;;;8.90;99.90;;;;;;5089528;28;20044;-48
2023/03/19 01:05:29;;;;;;;111.50;42.75;;;9.40;99.90;;;;;;5089845;28;20131;-48
2023/03/19 01:07:56;;;;;;;56.22;32.78;;;8.90;99.90;;;;;;5089373;28;20032;-48
2023/03/19 01:10:23;;;;;;;62.10;33.80;;;9.30;99.90;;;;;;5089450;28;20545;-48
2023/03/19 01:12:49;;;;;;;58.45;32.70;;;8.90;99.90;;;;;;5089901;28;20405;-51
2023/03/19 01:15:16;;;;;;;45.22;30.13;;;9.00;99.90;;;;;;5089930;28;20035;-48
2023/03/19 01:17:42;;;;;;;46.15;30.92;;;9.00;99.90;;;;;;5089938;28;20066;-48
2023/03/19 01:20:12;;;;;;;49.58;31.60;;;9.60;99.90;;;;;;5090514;28;20482;-48
2023/03/19 01:22:40;;;;;;;49.53;31.52;;;9.00;99.90;;;;;;5089656;28;20055;-48
2023/03/19 01:25:06;;;;;;;51.97;32.80;;;8.90;99.90;;;;;;5089696;28;20044;-48
2023/03/19 01:27:32;;;;;;;46.55;30.38;;;9.00;99.90;;;;;;5089351;28;20125;-49
2023/03/19 01:29:57;;;;;;;47.42;31.33;;;9.00;99.90;;;;;;5089457;28;20463;-49
2023/03/19 01:32:23;;;;;;;46.70;29.75;;;9.40;99.90;;;;;;5071089;28;20113;-48
2023/03/19 01:34:49;;;;;;;43.50;30.35;;;9.00;99.90;;;;;;5089487;28;20386;-48
2023/03/19 01:37:14;;;;;;;70.25;34.80;;;8.90;99.90;;;;;;5089330;28;20101;-48
2023/03/19 01:39:40;;;;;;;45.35;28.85;;;9.00;99.90;;;;;;5089412;28;20048;-49
2023/03/19 01:42:07;;;;;;;46.20;28.25;;;9.00;99.90;;;;;;5089515;28;20786;-50
2023/03/19 01:44:35;;;;;;;42.40;26.75;;;9.00;99.90;;;;;;5089106;28;20036;-51
2023/03/19 01:47:10;;;;;;;37.67;26.15;;;9.10;99.90;;;;;;5088574;28;20044;-48
2023/03/19 01:49:36;;;;;;;35.47;24.45;;;9.00;99.90;;;;;;5089438;28;20051;-48
2023/03/19 01:52:06;;;;;;;34.50;24.02;;;9.00;99.90;;;;;;5070661;28;20119;-48
2023/03/19 01:54:32;;;;;;;38.03;24.83;;;9.00;99.90;;;;;;5089103;28;20122;-48
2023/03/19 01:57:06;;;;;;;34.42;22.33;;;9.10;99.90;;;;;;5089136;28;20055;-48
2023/03/19 01:59:38;;;;;;;33.72;21.02;;;9.00;99.90;;;;;;5088876;28;20122;-49
2023/03/19 02:02:20;;;;;;;28.88;20.90;;;9.00;99.90;;;;;;5088667;28;20048;-48
2023/03/19 02:04:51;;;;;;;29.67;20.98;;;9.10;99.90;;;;;;5088647;28;20069;-49
2023/03/19 02:07:17;;;;;;;30.00;19.98;;;9.40;99.90;;;;;;5088304;28;20572;-48
2023/03/19 02:09:44;;;;;;;28.27;19.63;;;10.00;99.90;;;;;;5088650;28;20247;-47
2023/03/19 02:12:11;;;;;;;28.05;19.08;;;9.00;99.90;;;;;;5088013;28;20123;-48
2023/03/19 02:14:37;;;;;;;26.65;19.42;;;9.10;99.90;;;;;;5088600;28;20447;-47
2023/03/19 02:17:03;;;;;;;48.83;23.05;;;9.30;99.90;;;;;;5087850;28;20047;-48
2023/03/19 02:19:41;;;;;;;39.80;20.77;;;9.10;99.90;;;;;;5087709;28;20032;-48
2023/03/19 02:22:09;;;;;;;42.72;23.88;;;9.00;99.90;;;;;;5087116;28;20051;-48
2023/03/19 02:24:40;;;;;;;28.42;18.83;;;9.10;99.90;;;;;;5088262;28;20044;-49
2023/03/19 02:27:08;;;;;;;47.03;23.77;;;9.60;99.90;;;;;;5087827;28;20059;-48
2023/03/19 02:29:34;;;;;;;77.78;28.30;;;9.10;99.90;;;;;;5087926;28;20044;-47
2023/03/19 02:32:01;;;;;;;32.75;21.67;;;9.60;99.90;;;;;;5088177;28;20036;-47
2023/03/19 02:34:27;;;;;;;89.38;32.88;;;9.00;99.90;;;;;;5069543;28;20491;-49
2023/03/19 02:37:11;;;;;;;56.70;28.65;;;8.90;99.90;;;;;;5087678;28;20040;-48
2023/03/19 02:39:59;;;;;;;43.05;25.65;;;9.00;99.90;;;;;;5088090;28;20040;-49
2023/03/19 02:42:27;;;;;;;36.85;24.35;;;9.00;99.90;;;;;;5087388;28;20482;-47
2023/03/19 02:44:53;;;;;;;59.60;28.70;;;9.40;99.90;;;;;;5087556;28;20067;-49
2023/03/19 02:47:19;;;;;;;35.55;23.98;;;8.90;99.90;;;;;;5087586;28;20355;-49
2023/03/19 02:49:45;;;;;;;101.68;36.58;;;8.80;99.90;;;;;;5087993;28;20040;-49
2023/03/19 02:52:11;;;;;;;73.78;29.38;;;8.80;99.90;;;;;;5087273;28;20048;-48
2023/03/19 02:54:36;;;;;;;102.00;34.03;;;8.90;99.90;;;;;;5087420;28;20048;-48
2023/03/19 02:57:03;;;;;;;41.50;26.13;;;8.80;99.90;;;;;;5086744;28;20443;-48
2023/03/19 02:59:28;;;;;;;37.33;24.17;;;8.90;99.90;;;;;;5086737;28;20051;-48
2023/03/19 03:01:54;;;;;;;99.13;32.92;;;9.40;99.90;;;;;;5087333;28;20039;-48
2023/03/19 03:04:20;;;;;;;49.03;27.35;;;9.20;99.90;;;;;;5086681;28;20063;-48
2023/03/19 03:06:46;;;;;;;41.88;26.05;;;9.00;99.90;;;;;;5087551;28;20032;-48
2023/03/19 03:09:13;;;;;;;113.75;34.67;;;8.90;99.90;;;;;;5070434;28;20063;-50
2023/03/19 03:11:40;;;;;;;34.40;22.80;;;8.80;99.90;;;;;;5087674;28;20501;-49
2023/03/19 03:14:07;;;;;;;52.95;26.20;;;8.90;99.90;;;;;;5052459;28;20044;-46
2023/03/19 03:16:32;;;;;;;34.25;21.73;;;8.90;99.90;;;;;;5087581;28;20043;-49
2023/03/19 03:18:59;;;;;;;53.05;25.65;;;8.90;99.90;;;;;;5087043;28;20496;-50
2023/03/19 03:21:25;;;;;;;34.10;21.48;;;8.80;99.90;;;;;;5087667;28;20401;-47
2023/03/19 03:23:51;;;;;;;47.67;24.58;;;8.70;99.90;;;;;;5087128;28;20043;-48
2023/03/19 03:26:17;;;;;;;31.75;20.13;;;8.80;99.90;;;;;;5086770;28;20497;-49
2023/03/19 03:28:42;;;;;;;31.02;19.77;;;9.20;99.90;;;;;;5087436;28;20552;-48
2023/03/19 03:31:08;;;;;;;35.97;20.67;;;8.70;99.90;;;;;;5087496;28;20075;-47
2023/03/19 03:33:35;;;;;;;43.55;21.52;;;8.70;99.90;;;;;;5087710;28;20447;-48
2023/03/19 03:36:01;;;;;;;36.45;21.67;;;8.60;99.90;;;;;;5087679;28;20098;-49
2023/03/19 03:38:26;;;;;;;32.67;19.50;;;8.60;99.90;;;;;;5087129;28;20041;-48
2023/03/19 03:40:53;;;;;;;28.27;19.35;;;8.60;99.90;;;;;;5086718;28;20044;-51
2023/03/19 03:43:20;;;;;;;30.13;18.95;;;9.10;99.90;;;;;;5086832;28;20063;-50
2023/03/19 03:45:47;;;;;;;31.88;19.40;;;9.10;99.90;;;;;;5087083;28;20090;-48
2023/03/19 03:48:14;;;;;;;30.48;18.80;;;8.70;99.90;;;;;;5087161;28;20102;-48
2023/03/19 03:50:40;;;;;;;38.75;20.05;;;8.90;99.90;;;;;;5087682;28;20124;-47
2023/03/19 03:53:07;;;;;;;31.63;18.17;;;8.60;99.90;;;;;;5086850;28;20084;-47
2023/03/19 03:55:33;;;;;;;28.58;17.67;;;8.60;99.90;;;;;;5068739;28;20059;-50
2023/03/19 03:57:59;;;;;;;28.45;17.65;;;8.80;99.90;;;;;;5087128;28;20050;-48
2023/03/19 04:00:25;;;;;;;34.70;19.75;;;8.80;99.90;;;;;;5087127;28;20097;-48
2023/03/19 04:02:51;;;;;;;24.08;17.52;;;8.90;99.90;;;;;;5086973;28;20059;-48
2023/03/19 04:05:18;;;;;;;22.60;16.52;;;8.80;99.90;;;;;;5068202;28;20055;-48
2023/03/19 04:07:44;;;;;;;26.83;16.42;;;8.80;99.90;;;;;;5086702;28;20127;-48
2023/03/19 04:10:11;;;;;;;26.15;17.40;;;8.60;99.90;;;;;;5089742;28;20165;-49
2023/03/19 04:12:38;;;;;;;23.88;16.00;;;8.70;99.90;;;;;;5090921;28;20039;-48
2023/03/19 04:15:09;;;;;;;24.25;15.38;;;8.40;99.90;;;;;;5090780;28;20048;-48
2023/03/19 04:17:35;;;;;;;25.38;16.75;;;6.20;99.90;;;;;;5090569;28;20503;-48
2023/03/19 04:20:04;;;;;;;25.73;15.85;;;8.60;99.90;;;;;;5090220;28;20128;-48
2023/03/19 04:22:30;;;;;;;45.00;19.20;;;8.60;99.90;;;;;;5090101;28;20093;-48
2023/03/19 04:24:56;;;;;;;19.42;13.43;;;8.80;99.90;;;;;;5072122;28;20135;-49
2023/03/19 04:27:22;;;;;;;26.70;14.35;;;8.60;99.90;;;;;;5090240;28;20050;-49
2023/03/19 04:29:48;;;;;;;18.65;12.45;;;8.90;99.90;;;;;;5090789;28;20040;-48
2023/03/19 04:32:14;;;;;;;19.38;12.07;;;8.90;99.90;;;;;;5090504;28;20127;-48
2023/03/19 04:34:40;;;;;;;16.35;11.93;;;8.80;99.90;;;;;;5090074;28;20097;-48
2023/03/19 04:37:09;;;;;;;15.55;10.77;;;9.00;99.90;;;;;;5090480;28;20765;-48
2023/03/19 04:39:35;;;;;;;16.63;11.52;;;8.80;99.90;;;;;;5071825;28;20189;-48
2023/03/19 04:42:02;;;;;;;16.25;11.52;;;8.80;99.90;;;;;;5089486;28;20056;-49
2023/03/19 04:44:28;;;;;;;15.68;11.35;;;8.70;99.90;;;;;;5088860;28;20565;-48
2023/03/19 04:46:53;;;;;;;17.15;10.90;;;8.70;99.90;;;;;;5089543;28;20135;-48
2023/03/19 04:49:19;;;;;;;17.20;11.38;;;8.70;99.90;;;;;;5089228;28;20119;-48
2023/03/19 04:51:45;;;;;;;18.85;12.68;;;8.70;99.90;;;;;;5089391;28;20067;-48
2023/03/19 04:54:11;;;;;;;19.50;11.77;;;8.70;99.90;;;;;;5089228;28;20071;-48
2023/03/19 04:56:36;;;;;;;22.17;12.88;;;9.10;99.90;;;;;;5089634;28;20043;-48
2023/03/19 04:59:02;;;;;;;18.08;12.20;;;8.70;99.90;;;;;;5089831;28;20096;-49
2023/03/19 05:01:28;;;;;;;16.42;10.80;;;8.60;99.90;;;;;;5090195;28;20051;-48
2023/03/19 05:03:53;;;;;;;17.25;11.88;;;8.40;99.90;;;;;;5090016;28;20397;-48
2023/03/19 05:06:20;;;;;;;40.45;15.90;;;8.40;99.90;;;;;;5089904;28;20500;-50
2023/03/19 05:08:46;;;;;;;17.48;11.50;;;8.50;99.90;;;;;;5089022;28;20040;-48
2023/03/19 05:11:11;;;;;;;17.20;11.45;;;8.30;99.90;;;;;;5089520;28;20153;-49
2023/03/19 05:13:37;;;;;;;17.98;11.77;;;8.20;99.90;;;;;;5088886;28;20055;-49
2023/03/19 05:16:03;;;;;;;27.38;14.45;;;8.50;99.90;;;;;;5089377;28;20058;-47
2023/03/19 05:18:28;;;;;;;20.48;12.27;;;8.20;99.90;;;;;;5088621;28;20040;-49
2023/03/19 05:20:54;;;;;;;23.70;12.73;;;8.50;99.90;;;;;;5088442;28;20079;-49
2023/03/19 05:23:21;;;;;;;22.55;12.05;;;8.10;99.90;;;;;;5088788;28;20036;-47
2023/03/19 05:25:48;;;;;;;25.90;13.20;;;8.70;99.90;;;;;;5070705;28;20047;-48
2023/03/19 05:28:13;;;;;;;18.60;11.27;;;8.30;99.90;;;;;;5089424;28;20048;-48
2023/03/19 05:30:40;;;;;;;15.15;10.18;;;9.20;99.90;;;;;;5088882;28;20482;-48
2023/03/19 05:33:05;;;;;;;18.95;11.27;;;7.80;99.90;;;;;;5089370;28;20040;-48
2023/03/19 05:35:32;;;;;;;28.45;12.48;;;7.80;99.90;;;;;;5089411;28;20088;-48
2023/03/19 05:37:58;;;;;;;18.30;10.45;;;7.90;99.90;;;;;;5089419;28;20122;-48
2023/03/19 05:40:24;;;;;;;20.08;11.38;;;8.70;99.90;;;;;;5089109;28;20151;-48
2023/03/19 05:42:50;;;;;;;25.35;12.38;;;8.00;99.90;;;;;;5088641;28;20122;-51
2023/03/19 05:45:16;;;;;;;20.30;11.65;;;7.90;99.90;;;;;;5088985;28;20130;-48
2023/03/19 05:47:43;;;;;;;16.05;10.95;;;8.00;99.90;;;;;;5088725;28;20036;-48
2023/03/19 05:50:10;;;;;;;16.92;10.65;;;8.20;99.90;;;;;;5088629;28;20069;-49
2023/03/19 05:52:36;;;;;;;18.30;11.50;;;8.00;99.90;;;;;;5069280;28;20071;-48
2023/03/19 05:55:03;;;;;;;17.45;11.60;;;7.90;99.90;;;;;;5087612;28;20040;-49
2023/03/19 05:57:29;;;;;;;21.25;11.30;;;7.80;99.90;;;;;;5087015;28;20048;-47
2023/03/19 05:59:55;;;;;;;15.35;9.85;;;7.70;99.90;;;;;;5088437;28;20071;-48
2023/03/19 06:02:21;;;;;;;35.10;14.10;;;7.60;99.90;;;;;;5088202;28;20076;-47
2023/03/19 06:04:46;;;;;;;16.73;11.55;;;7.60;99.90;;;;;;5088395;28;20048;-48
2023/03/19 06:07:12;;;;;;;21.13;11.50;;;7.70;99.90;;;;;;5088266;28;20486;-48
2023/03/19 06:09:37;;;;;;;20.50;11.80;;;8.90;99.90;;;;;;5088075;28;20101;-47
2023/03/19 06:12:03;;;;;;;16.65;10.75;;;8.40;99.90;;;;;;5088607;28;20097;-48
2023/03/19 06:14:29;;;;;;;26.17;11.50;;;7.70;99.90;;;;;;5088782;28;20118;-48
2023/03/19 06:16:55;;;;;;;19.60;10.95;;;7.50;99.90;;;;;;5088128;28;20067;-48
2023/03/19 06:19:21;;;;;;;16.63;10.32;;;7.60;99.90;;;;;;5088376;28;20067;-48
2023/03/19 06:21:47;;;;;;;27.63;12.50;;;7.80;99.90;;;;;;5088345;28;20048;-48
2023/03/19 06:24:13;;;;;;;23.42;12.18;;;7.60;99.90;;;;;;5088359;28;20058;-49
2023/03/19 06:26:38;;;;;;;14.13;10.40;;;7.50;99.90;;;;;;5088077;28;20036;-50
2023/03/19 06:29:05;;;;;;;39.35;13.85;;;8.60;99.90;;;;;;5087291;28;20505;-49
2023/03/19 06:31:30;;;;;;;27.38;12.48;;;8.50;99.90;;;;;;5069994;28;20048;-48
2023/03/19 06:33:56;;;;;;;20.42;11.95;;;7.50;99.90;;;;;;5069647;28;20052;-47
2023/03/19 06:36:22;;;;;;;20.42;11.35;;;7.90;99.90;;;;;;5088017;28;20418;-49
2023/03/19 06:38:47;;;;;;;20.52;10.93;;;8.00;99.90;;;;;;5088279;28;20046;-48
2023/03/19 06:41:13;;;;;;;32.05;13.60;;;7.60;99.90;;;;;;5088081;28;20074;-49
2023/03/19 06:43:40;;;;;;;31.95;13.85;;;8.40;99.90;;;;;;5087324;28;20082;-48
2023/03/19 06:46:08;;;;;;;18.27;10.90;;;8.30;99.90;;;;;;5088271;28;20032;-48
2023/03/19 06:48:34;;;;;;;29.30;14.55;;;8.00;99.90;;;;;;5069886;28;20056;-48
2023/03/19 06:51:00;;;;;;;39.70;15.05;;;8.60;99.90;;;;;;5087812;28;20097;-48
2023/03/19 06:53:26;;;;;;;25.10;13.02;;;8.40;99.90;;;;;;5087470;28;20197;-47
2023/03/19 06:55:52;;;;;;;31.98;15.23;;;9.00;99.90;;;;;;5087750;28;20487;-47
2023/03/19 06:58:18;;;;;;;27.67;15.20;;;8.90;99.90;;;;;;5069561;28;20093;-48
2023/03/19 07:00:44;;;;;;;14.30;11.52;;;9.40;99.90;;;;;;5087628;28;20040;-49
2023/03/19 07:03:10;;;;;;;28.42;13.75;;;9.10;99.90;;;;;;5087402;28;20120;-49
2023/03/19 07:05:35;;;;;;;19.30;12.02;;;9.00;99.90;;;;;;5087034;28;20086;-48
2023/03/19 07:08:01;;;;;;;23.08;12.60;;;8.90;99.90;;;;;;5068724;28;20046;-48
2023/03/19 07:10:27;;;;;;;15.32;10.80;;;8.80;99.90;;;;;;5087395;28;20043;-52
2023/03/19 07:12:53;;;;;;;26.08;13.77;;;8.70;99.90;;;;;;5087220;28;20044;-48
2023/03/19 07:15:20;;;;;;;15.48;10.43;;;9.30;99.90;;;;;;5087227;28;20101;-49
2023/03/19 07:17:47;;;;;;;22.05;11.88;;;9.00;99.90;;;;;;5086994;28;20411;-50
2023/03/19 07:20:14;;;;;;;23.50;12.93;;;8.60;99.90;;;;;;5087423;28;20128;-50
2023/03/19 07:22:39;;;;;;;24.27;13.70;;;8.60;99.90;;;;;;5087464;28;20052;-48
2023/03/19 07:25:06;;;;;;;21.20;11.98;;;9.30;99.90;;;;;;5087193;28;20036;-48
2023/03/19 07:27:32;;;;;;;17.60;12.35;;;8.60;99.90;;;;;;5087791;28;20048;-48
2023/03/19 07:29:57;;;;;;;24.92;12.90;;;9.00;99.90;;;;;;5087418;28;20032;-48
2023/03/19 07:32:23;;;;;;;20.23;12.75;;;8.90;99.90;;;;;;5087841;28;20448;-48
2023/03/19 07:34:49;;;;;;;20.05;12.88;;;9.10;99.90;;;;;;5068487;28;20052;-48
2023/03/19 07:37:15;;;;;;;23.13;13.98;;;9.30;99.90;;;;;;5087901;28;20071;-49
2023/03/19 07:39:41;;;;;;;16.83;12.32;;;9.40;99.90;;;;;;5087265;28;20110;-48
2023/03/19 07:42:06;;;;;;;15.38;12.02;;;9.50;99.90;;;;;;5087048;28;20390;-49
2023/03/19 07:44:33;;;;;;;19.17;13.73;;;10.40;99.90;;;;;;5088296;28;20122;-49
2023/03/19 07:46:58;;;;;;;19.42;13.02;;;10.00;99.90;;;;;;5091999;28;20123;-48
2023/03/19 07:49:24;;;;;;;19.50;13.35;;;10.20;99.90;;;;;;5091493;28;20155;-48
2023/03/19 07:51:50;;;;;;;22.20;13.80;;;10.30;99.90;;;;;;5091814;28;20051;-51
2023/03/19 07:54:16;;;;;;;21.27;14.63;;;10.50;99.90;;;;;;5091409;28;20075;-47
2023/03/19 07:56:42;;;;;;;19.30;12.88;;;11.10;99.90;;;;;;5072982;28;20123;-48
2023/03/19 07:59:07;;;;;;;19.52;13.35;;;10.50;99.90;;;;;;5072365;28;20140;-48
2023/03/19 08:01:34;;;;;;;18.73;12.90;;;10.30;99.90;;;;;;5091434;28;20052;-49
2023/03/19 08:04:00;;;;;;;16.92;12.90;;;10.20;99.90;;;;;;5090788;28;20080;-49
2023/03/19 08:06:25;;;;;;;18.50;13.07;;;10.10;99.90;;;;;;5072288;28;20144;-48
2023/03/19 08:08:51;;;;;;;17.50;12.73;;;10.40;99.90;;;;;;5090315;28;20308;-48
2023/03/19 08:11:17;;;;;;;17.60;12.18;;;10.80;99.90;;;;;;5090862;28;20047;-48
2023/03/19 08:13:42;;;;;;;16.73;12.85;;;10.90;99.90;;;;;;5091440;28;20069;-48
2023/03/19 08:16:08;;;;;;;16.98;12.50;;;10.80;99.90;;;;;;5091332;28;20087;-49
2023/03/19 08:18:35;;;;;;;17.92;12.73;;;10.80;99.90;;;;;;5090745;28;20044;-49
2023/03/19 08:21:01;;;;;;;14.82;11.77;;;10.90;99.90;;;;;;5091061;28;20058;-47
2023/03/19 08:23:27;;;;;;;17.27;13.77;;;11.00;99.90;;;;;;5090654;28;20036;-49
2023/03/19 08:25:54;;;;;;;15.43;12.00;;;10.90;99.90;;;;;;5090811;28;20055;-50
2023/03/19 08:28:20;;;;;;;18.10;12.88;;;11.20;99.90;;;;;;5089911;28;20042;-48
2023/03/19 08:30:46;;;;;;;19.20;12.93;;;11.60;99.90;;;;;;5090178;28;20093;-49
2023/03/19 08:33:12;;;;;;;16.95;12.68;;;11.50;99.90;;;;;;5089475;28;20040;-49
2023/03/19 08:35:37;;;;;;;17.92;13.57;;;13.50;99.90;;;;;;5071120;28;20044;-48
2023/03/19 08:38:03;;;;;;;15.27;12.93;;;12.00;99.90;;;;;;5089205;28;20444;-50
2023/03/19 08:40:29;;;;;;;17.67;15.57;;;12.50;99.90;;;;;;5089565;28;20066;-48
2023/03/19 08:42:55;;;;;;;18.33;14.93;;;12.70;99.90;;;;;;5088872;28;20048;-48
2023/03/19 08:45:22;;;;;;;17.88;14.45;;;12.80;99.90;;;;;;5088535;28;20036;-49
2023/03/19 08:47:48;;;;;;;16.38;14.57;;;13.10;99.90;;;;;;5089227;28;20079;-48
2023/03/19 08:50:15;;;;;;;21.45;14.98;;;13.50;99.90;;;;;;5088388;28;20198;-48
2023/03/19 08:52:41;;;;;;;18.25;14.15;;;13.70;99.90;;;;;;5089435;28;20052;-49
2023/03/19 08:55:08;;;;;;;19.02;14.52;;;13.50;99.90;;;;;;5088751;28;20047;-50
2023/03/19 08:57:34;;;;;;;17.98;13.05;;;13.70;99.90;;;;;;5088826;28;20076;-50
2023/03/19 09:00:01;;;;;;;16.73;12.98;;;14.00;99.90;;;;;;5089663;28;20040;-48
2023/03/19 09:02:27;;;;;;;12.25;10.95;;;15.10;99.90;;;;;;5089464;28;20048;-51
2023/03/19 09:04:52;;;;;;;14.68;12.80;;;13.30;99.90;;;;;;5089272;28;20123;-50
2023/03/19 09:07:18;;;;;;;14.90;13.20;;;13.10;99.90;;;;;;5088966;28;20101;-50
2023/03/19 09:09:44;;;;;;;14.45;11.95;;;13.10;99.90;;;;;;5089386;28;20051;-51
2023/03/19 09:12:13;;;;;;;17.83;12.40;;;13.20;99.90;;;;;;5089455;28;20524;-50
2023/03/19 09:14:39;;;;;;;13.52;11.02;;;13.10;99.90;;;;;;5089900;28;20139;-52
2023/03/19 09:17:05;;;;;;;13.90;10.77;;;12.90;99.90;;;;;;5089090;28;20541;-52
2023/03/19 09:19:32;;;;;;;13.15;11.10;;;12.60;99.90;;;;;;5088565;28;20127;-51
2023/03/19 09:21:58;;;;;;;14.95;10.70;;;12.50;99.90;;;;;;5088861;28;20040;-49
2023/03/19 09:24:25;;;;;;;14.02;10.63;;;12.30;99.90;;;;;;5070136;28;20122;-50
2023/03/19 09:26:50;;;;;;;13.95;10.98;;;12.20;99.90;;;;;;5088999;28;20136;-53
2023/03/19 09:29:16;;;;;;;11.38;10.18;;;12.10;99.90;;;;;;5068356;28;20089;-52
2023/03/19 09:31:42;;;;;;;14.73;11.38;;;12.00;99.90;;;;;;5087281;28;20043;-51
2023/03/19 09:34:08;;;;;;;12.98;10.90;;;12.00;99.90;;;;;;5085577;28;20286;-53
2023/03/19 09:36:37;;;;;;;14.05;10.63;;;12.00;99.90;;;;;;5067511;28;20058;-52
2023/03/19 09:39:04;;;;;;;12.48;11.18;;;12.00;99.90;;;;;;5085471;28;20039;-53
2023/03/19 09:41:30;;;;;;;14.73;12.48;;;12.00;99.90;;;;;;5086229;28;20681;-52
2023/03/19 09:44:11;;;;;;;15.18;11.48;;;12.20;99.90;;;;;;5086061;28;20047;-53
2023/03/19 09:46:52;;;;;;;12.90;11.50;;;12.10;99.90;;;;;;5086288;28;20040;-53
2023/03/19 09:49:25;;;;;;;12.85;11.00;;;12.10;99.90;;;;;;5086081;28;20119;-53
2023/03/19 09:51:57;;;;;;;11.98;10.73;;;12.20;99.90;;;;;;5086916;28;20126;-53
2023/03/19 09:54:54;;;;;;;12.57;11.07;;;12.30;99.90;;;;;;5084967;28;20091;-53
2023/03/19 09:57:20;;;;;;;11.68;10.05;;;12.40;99.90;;;;;;5080519;28;20052;-47
2023/03/19 09:59:47;;;;;;;13.27;10.18;;;12.30;99.90;;;;;;5065371;28;20036;-49
2023/03/19 10:02:40;;;;;;;10.90;9.80;;;12.50;99.90;;;;;;5082148;28;20062;-48
2023/03/19 10:05:18;;;;;;;10.38;8.82;;;12.30;99.90;;;;;;5083702;28;20039;-48
2023/03/19 10:08:12;;;;;;;10.95;8.52;;;12.30;99.90;;;;;;5082520;28;20048;-49
2023/03/19 10:10:43;;;;;;;9.00;7.53;;;12.60;99.90;;;;;;5083387;28;20742;-48
2023/03/19 10:13:23;;;;;;;10.15;7.75;;;12.70;99.90;;;;;;5083440;28;20075;-49
2023/03/19 10:15:51;;;;;;;9.73;8.60;;;12.90;99.90;;;;;;5065229;28;20040;-47
2023/03/19 10:18:25;;;;;;;10.13;7.65;;;12.90;99.90;;;;;;5083353;28;20039;-50
2023/03/19 10:21:05;;;;;;;11.02;8.35;;;12.80;99.90;;;;;;5083713;28;20054;-47
2023/03/19 10:24:02;;;;;;;10.65;7.88;;;12.70;99.90;;;;;;5083214;28;20058;-48
2023/03/19 10:26:33;;;;;;;9.10;6.53;;;13.10;99.90;;;;;;5082843;28;20083;-48
2023/03/19 10:29:12;;;;;;;8.95;6.22;;;13.30;99.90;;;;;;5045518;28;20068;-47
2023/03/19 10:32:17;;;;;;;7.53;6.38;;;13.20;99.90;;;;;;5064753;28;20102;-48
2023/03/19 10:34:47;;;;;;;7.68;6.55;;;13.10;99.90;;;;;;5083508;28;20047;-47
2023/03/19 10:37:21;;;;;;;7.57;5.88;;;13.10;99.90;;;;;;5082913;28;20097;-48
2023/03/19 10:39:49;;;;;;;7.07;5.30;;;12.90;99.90;;;;;;5083311;28;20540;-47
2023/03/19 10:42:21;;;;;;;6.75;5.30;;;12.80;99.90;;;;;;5083623;28;20075;-47
2023/03/19 10:45:18;;;;;;;7.05;6.35;;;12.80;99.90;;;;;;5083382;28;20032;-46
2023/03/19 10:47:44;;;;;;;6.30;4.90;;;12.70;99.90;;;;;;5065305;28;20097;-46
2023/03/19 10:50:19;;;;;;;6.60;5.85;;;13.00;99.90;;;;;;5083384;28;20074;-49
2023/03/19 10:52:50;;;;;;;7.63;6.15;;;13.20;99.90;;;;;;5083317;28;20507;-47
2023/03/19 10:55:25;;;;;;;5.90;4.90;;;13.20;99.90;;;;;;5083540;28;20102;-48
2023/03/19 10:58:00;;;;;;;6.65;5.20;;;13.30;99.90;;;;;;5082882;28;20039;-48
2023/03/19 11:00:31;;;;;;;8.20;5.75;;;13.40;99.90;;;;;;5082944;28;20474;-49
2023/03/19 11:02:58;;;;;;;8.23;5.38;;;13.50;99.90;;;;;;5082027;28;20044;-48
2023/03/19 11:05:32;;;;;;;6.80;5.55;;;13.60;99.90;;;;;;5081950;28;20036;-49
2023/03/19 11:08:04;;;;;;;5.93;5.32;;;13.70;99.90;;;;;;5081642;28;20662;-47
2023/03/19 11:10:33;;;;;;;7.78;5.78;;;13.90;99.90;;;;;;5082051;28;20117;-48
2023/03/19 11:13:04;;;;;;;6.97;5.70;;;14.00;99.90;;;;;;5082020;28;20446;-49
2023/03/19 11:15:36;;;;;;;6.55;5.85;;;13.90;99.90;;;;;;5063563;28;20086;-50
2023/03/19 11:18:20;;;;;;;8.02;6.40;;;14.00;99.90;;;;;;5082030;28;20074;-47
2023/03/19 11:21:19;;;;;;;6.20;5.53;;;14.10;99.90;;;;;;5081866;28;20047;-47
2023/03/19 11:23:51;;;;;;;8.75;6.38;;;14.60;99.90;;;;;;5082082;28;20561;-47
2023/03/19 11:26:27;;;;;;;;;;;14.00;99.90;;;;;;5083146;28;20115;-49
2023/03/19 11:28:54;;;;;;;8.18;6.70;;;13.90;99.90;;;;;;5060305;28;20556;-48
2023/03/19 11:31:33;;;;;;;9.63;7.43;;;14.00;99.90;;;;;;5082469;28;20268;-47
2023/03/19 11:34:17;;;;;;;8.18;6.93;;;13.90;99.90;;;;;;5082495;28;20048;-50
2023/03/19 11:37:17;;;;;;;11.02;7.32;;;13.90;99.90;;;;;;5082636;28;20044;-47
2023/03/19 11:40:12;;;;;;;7.75;6.25;;;13.90;99.90;;;;;;5042930;28;20056;-48
2023/03/19 11:43:18;;;;;;;10.23;7.10;;;13.80;99.90;;;;;;5080834;28;20728;-47
2023/03/19 11:45:50;;;;;;;9.90;7.28;;;13.80;99.90;;;;;;5081497;28;20545;-50
2023/03/19 11:48:58;;;;;;;10.60;7.38;;;13.70;99.90;;;;;;5081379;28;20119;-47
2023/03/19 11:51:35;;;;;;;8.88;6.72;;;13.70;99.90;;;;;;5054543;28;20063;-47
2023/03/19 11:54:22;;;;;;;8.48;7.25;;;13.70;99.90;;;;;;5081864;28;20060;-47
2023/03/19 11:56:48;;;;;;;9.57;7.97;;;13.70;99.90;;;;;;5081760;28;20859;-49
2023/03/19 11:59:45;;;;;;;10.10;8.02;;;13.70;99.90;;;;;;5082642;28;20225;-49
2023/03/19 12:02:32;;;;;;;10.30;7.45;;;13.60;99.90;;;;;;5082198;28;20043;-48
2023/03/19 12:05:33;;;;;;;9.93;8.27;;;13.60;99.90;;;;;;5082655;28;20040;-48
2023/03/19 12:08:41;;;;;;;9.82;7.32;;;13.30;99.90;;;;;;4980370;28;20089;-50
2023/03/19 12:11:15;;;;;;;11.45;8.98;;;13.20;99.90;;;;;;5082114;28;20093;-47
2023/03/19 12:13:53;;;;;;;10.43;8.07;;;13.30;99.90;;;;;;5064367;28;20040;-47
2023/03/19 12:16:30;;;;;;;9.75;8.60;;;13.20;99.90;;;;;;5082387;28;20048;-48
2023/03/19 12:19:35;;;;;;;12.43;8.10;;;13.20;99.90;;;;;;5081860;28;20070;-46
2023/03/19 12:22:27;;;;;;;8.73;7.68;;;13.20;99.90;;;;;;5063735;28;20052;-48
2023/03/19 12:25:21;;;;;;;11.88;9.82;;;13.30;99.90;;;;;;5082783;28;20044;-47
2023/03/19 12:28:11;;;;;;;12.27;9.57;;;13.40;99.90;;;;;;5052846;28;20358;-49
2023/03/19 12:30:58;;;;;;;12.52;10.60;;;13.40;99.90;;;;;;5082668;28;20158;-46
2023/03/19 12:33:43;;;;;;;10.68;9.57;;;13.50;99.90;;;;;;5085075;28;20146;-46
2023/03/19 12:36:13;;;;;;;11.70;9.48;;;13.60;99.90;;;;;;5066668;28;20076;-46
2023/03/19 12:38:47;;;;;;;13.68;10.35;;;13.50;99.90;;;;;;5084501;28;20032;-47
2023/03/19 12:41:23;;;;;;;12.50;10.40;;;13.50;99.90;;;;;;5085361;28;20704;-48
2023/03/19 12:43:55;;;;;;;11.68;9.85;;;13.50;99.90;;;;;;5084652;28;20040;-46
2023/03/19 12:46:26;;;;;;;11.13;9.95;;;13.40;99.90;;;;;;5085373;28;20040;-47
2023/03/19 12:48:56;;;;;;;12.57;10.13;;;13.50;99.90;;;;;;5066164;28;20040;-46